»·PEaware :: N848SR KSNA-KSMO

N848SR :: KSNA-KSMO

FLIGHT INFORMATION

Flight Status: Arrived
Operator: Privately registered:
United States
More flights under this callsign
Pilot: Anonymous 20783 (20783)
Aircraft: CIRRUS SR-22
(SR22)
More flights by this aircraft type
Origin: KSNA John Wayne-Orange Co
United States
Destination: KSMO Santa Monica Mun
United States
More flights between these airports :: More routes between these airports
Route: CSTP9
File this flight plan on PilotEdge
Remarks:
Altitude:
(Current/Filed)
6,000ft
Speed:
(Current/Filed)
140kts
Departed: 02-Dec-18 09:48 AM
Arrived: 02-Dec-18 10:16 AM
Distance/Time
Traveled:
36nm/0:27
Distance/Time
To Go:
Arrived

Flight Plot

Page will automatically refresh every two minutes.

Flight plan parsing failed; only flown route is shown


Map Options




Map Legend


Flown Route
Filed Route
Departure Airport
Arrival Airport
Navaid (VOR, NDB)
Fix

Horizontal Profiles

Position Reports

Time Latitude Longitude Heading Altitude Ground
Speed
02-Dec-18 09:29 33.669770 -117.875001 117 60ft 0kts
02-Dec-18 09:30 33.669770 -117.875001 117 60ft 0kts
02-Dec-18 09:31 33.669770 -117.875001 117 60ft 0kts
02-Dec-18 09:32 33.669770 -117.875001 117 60ft 0kts
02-Dec-18 09:33 33.669770 -117.875001 117 60ft 0kts
02-Dec-18 09:34 33.669770 -117.875001 117 60ft 0kts
02-Dec-18 09:35 33.669770 -117.875001 117 60ft 0kts
02-Dec-18 09:36 33.669770 -117.875001 117 60ft 0kts
02-Dec-18 09:37 33.669770 -117.875001 117 60ft 0kts
02-Dec-18 09:38 33.669770 -117.875001 117 60ft 0kts
02-Dec-18 09:39 33.669770 -117.875001 117 60ft 0kts
02-Dec-18 09:40 33.669770 -117.875001 117 60ft 0kts
02-Dec-18 09:41 33.669770 -117.875001 117 60ft 0kts
02-Dec-18 09:42 33.669770 -117.875001 117 60ft 0kts
02-Dec-18 09:43 33.669770 -117.875001 117 60ft 0kts
02-Dec-18 09:44 33.669770 -117.875001 117 60ft 0kts
02-Dec-18 09:45 33.669770 -117.875001 117 60ft 0kts
02-Dec-18 09:46 33.669770 -117.875001 117 60ft 0kts
02-Dec-18 09:47 33.671262 -117.873141 28 60ft 25kts
02-Dec-18 09:48 33.678523 -117.868527 26 60ft 32kts
02-Dec-18 09:49 33.681286 -117.866546 80 60ft 0kts
02-Dec-18 09:50 33.681286 -117.866546 80 60ft 0kts
02-Dec-18 09:51 33.678389 -117.867145 206 60ft 70kts
02-Dec-18 09:52 33.662317 -117.883817 241 911ft 100kts
02-Dec-18 09:53 33.646882 -117.918565 241 2407ft 103kts
02-Dec-18 09:54 33.633368 -117.948997 241 3690ft 105kts
02-Dec-18 09:55 33.623330 -117.980860 293 4952ft 108kts
02-Dec-18 09:56 33.645102 -117.984190 17 5995ft 108kts
02-Dec-18 09:57 33.711139 -117.958816 17 6007ft 144kts
02-Dec-18 09:58 33.776543 -117.933735 17 6004ft 152kts
02-Dec-18 09:59 33.826363 -117.889313 73 6003ft 154kts
02-Dec-18 10:00 33.836796 -117.848371 72 6003ft 155kts
02-Dec-18 10:01 33.849460 -117.799207 72 6003ft 155kts
02-Dec-18 10:02 33.884726 -117.782860 358 6003ft 155kts
02-Dec-18 10:03 33.955698 -117.784498 359 6003ft 155kts
02-Dec-18 10:04 34.015309 -117.801816 281 6006ft 154kts
02-Dec-18 10:05 34.032624 -117.867176 290 6003ft 155kts
02-Dec-18 10:06 34.062515 -117.964161 290 6003ft 155kts
02-Dec-18 10:07 34.083708 -118.033035 290 6003ft 155kts
02-Dec-18 10:08 34.098571 -118.081432 290 6003ft 155kts
02-Dec-18 10:09 34.113252 -118.129314 290 6003ft 155kts
02-Dec-18 10:10 34.128113 -118.177865 290 6003ft 155kts
02-Dec-18 10:11 34.142119 -118.223736 289 5630ft 126kts
02-Dec-18 10:12 34.153333 -118.260631 289 5108ft 114kts
02-Dec-18 10:13 34.139028 -118.291395 226 4271ft 111kts
02-Dec-18 10:14 34.116177 -118.320986 226 3067ft 134kts
02-Dec-18 10:15 34.093840 -118.349884 227 2854ft 127kts
02-Dec-18 10:16 34.069593 -118.381799 227 1608ft 117kts
02-Dec-18 10:17 34.048443 -118.409525 226 1195ft 112kts
02-Dec-18 10:18 34.028927 -118.435096 230 523ft 95kts
02-Dec-18 10:19 34.015767 -118.451390 222 181ft 24kts
02-Dec-18 10:20 34.013562 -118.454824 310 181ft 0kts
02-Dec-18 10:21 34.014560 -118.453979 48 181ft 21kts
02-Dec-18 10:22 34.016484 -118.452813 106 181ft 0kts
02-Dec-18 10:23 34.016484 -118.452813 106 181ft 0kts
02-Dec-18 10:24 34.016484 -118.452813 106 181ft 0kts
02-Dec-18 10:25 34.016484 -118.452813 106 181ft 0kts
02-Dec-18 10:26 34.016484 -118.452813 106 181ft 0kts
02-Dec-18 10:27 34.016484 -118.452813 106 181ft 0kts
02-Dec-18 10:28 34.016484 -118.452813 106 181ft 0kts
02-Dec-18 10:29 34.016484 -118.452813 106 181ft 0kts
02-Dec-18 10:30 34.016484 -118.452813 106 181ft 0kts
02-Dec-18 10:31 34.016484 -118.452813 106 181ft 0kts
02-Dec-18 10:32 34.016484 -118.452813 106 181ft 0kts
02-Dec-18 10:33 34.016484 -118.452813 106 181ft 0kts

Navigation Log

Ident Type
Flight plan parsing failed, navigation log unavailable